sensor_id;sensor_type;location;lat;lon;timestamp;P1;durP1;ratioP1;P2;durP2;ratioP2
55609;SDS011;41486;52.502;13.486;2024-03-02T16:13:33;8.18;;;4.35;;
55609;SDS011;41486;52.502;13.486;2024-03-02T16:16:02;6.75;;;4.43;;
55609;SDS011;41486;52.502;13.486;2024-03-02T16:18:31;8.60;;;5.25;;
55609;SDS011;41486;52.502;13.486;2024-03-02T16:21:01;7.93;;;4.65;;
55609;SDS011;41486;52.502;13.486;2024-03-02T16:23:30;7.28;;;4.88;;
55609;SDS011;41486;52.502;13.486;2024-03-02T16:25:59;7.10;;;4.63;;
55609;SDS011;41486;52.502;13.486;2024-03-02T16:28:27;10.52;;;4.38;;
55609;SDS011;41486;52.502;13.486;2024-03-02T16:30:56;7.22;;;4.80;;
55609;SDS011;41486;52.502;13.486;2024-03-02T16:33:24;6.53;;;4.82;;
55609;SDS011;41486;52.502;13.486;2024-03-02T16:35:52;8.48;;;5.00;;
55609;SDS011;41486;52.502;13.486;2024-03-02T16:38:20;10.80;;;4.95;;
55609;SDS011;41486;52.502;13.486;2024-03-02T16:40:49;8.27;;;5.10;;
55609;SDS011;41486;52.502;13.486;2024-03-02T16:43:17;10.38;;;5.30;;
55609;SDS011;41486;52.502;13.486;2024-03-02T16:45:46;7.45;;;5.00;;
55609;SDS011;41486;52.502;13.486;2024-03-02T16:48:16;8.85;;;5.03;;
55609;SDS011;41486;52.502;13.486;2024-03-02T16:50:45;6.82;;;4.70;;
55609;SDS011;41486;52.502;13.486;2024-03-02T16:53:13;7.35;;;4.93;;
55609;SDS011;41486;52.502;13.486;2024-03-02T16:55:42;11.32;;;5.60;;
55609;SDS011;41486;52.502;13.486;2024-03-02T16:58:11;7.43;;;5.38;;
55609;SDS011;41486;52.502;13.486;2024-03-02T17:00:39;8.55;;;5.60;;
55609;SDS011;41486;52.502;13.486;2024-03-02T17:03:07;8.55;;;5.60;;
55609;SDS011;41486;52.502;13.486;2024-03-02T17:05:37;10.57;;;6.22;;
55609;SDS011;41486;52.502;13.486;2024-03-02T17:08:05;9.60;;;6.30;;
55609;SDS011;41486;52.502;13.486;2024-03-02T17:10:34;10.15;;;5.82;;
55609;SDS011;41486;52.502;13.486;2024-03-02T17:13:02;10.38;;;5.32;;
55609;SDS011;41486;52.502;13.486;2024-03-02T17:15:31;6.40;;;4.93;;
55609;SDS011;41486;52.502;13.486;2024-03-02T17:17:59;9.10;;;5.18;;
55609;SDS011;41486;52.502;13.486;2024-03-02T17:20:27;9.40;;;5.43;;
55609;SDS011;41486;52.502;13.486;2024-03-02T17:22:57;12.27;;;6.80;;
55609;SDS011;41486;52.502;13.486;2024-03-02T17:25:25;30.50;;;15.02;;
55609;SDS011;41486;52.502;13.486;2024-03-02T17:27:54;33.38;;;16.98;;
55609;SDS011;41486;52.502;13.486;2024-03-02T17:30:44;14.27;;;7.82;;
55609;SDS011;41486;52.502;13.486;2024-03-02T17:33:12;10.43;;;6.22;;
55609;SDS011;41486;52.502;13.486;2024-03-02T17:35:40;8.70;;;5.47;;
55609;SDS011;41486;52.502;13.486;2024-03-02T17:38:14;8.50;;;5.90;;
55609;SDS011;41486;52.502;13.486;2024-03-02T17:40:42;13.57;;;5.93;;
55609;SDS011;41486;52.502;13.486;2024-03-02T17:43:11;8.48;;;6.15;;
55609;SDS011;41486;52.502;13.486;2024-03-02T17:45:39;8.90;;;5.95;;
55609;SDS011;41486;52.502;13.486;2024-03-02T17:48:07;10.88;;;6.38;;
55609;SDS011;41486;52.502;13.486;2024-03-02T17:50:38;11.05;;;7.28;;
55609;SDS011;41486;52.502;13.486;2024-03-02T17:53:06;11.00;;;5.97;;
55609;SDS011;41486;52.502;13.486;2024-03-02T17:55:36;11.38;;;5.90;;
55609;SDS011;41486;52.502;13.486;2024-03-02T17:58:04;10.43;;;6.25;;
55609;SDS011;41486;52.502;13.486;2024-03-02T18:00:32;8.68;;;5.80;;
55609;SDS011;41486;52.502;13.486;2024-03-02T18:03:00;9.35;;;6.38;;
55609;SDS011;41486;52.502;13.486;2024-03-02T18:05:28;9.30;;;6.38;;
55609;SDS011;41486;52.502;13.486;2024-03-02T18:07:56;49.30;;;23.77;;
55609;SDS011;41486;52.502;13.486;2024-03-02T18:10:24;10.45;;;7.53;;
55609;SDS011;41486;52.502;13.486;2024-03-02T18:12:56;12.50;;;6.72;;
55609;SDS011;41486;52.502;13.486;2024-03-02T18:15:24;12.52;;;7.00;;
55609;SDS011;41486;52.502;13.486;2024-03-02T18:17:52;12.15;;;8.27;;
55609;SDS011;41486;52.502;13.486;2024-03-02T18:20:20;11.15;;;7.68;;
55609;SDS011;41486;52.502;13.486;2024-03-02T18:22:48;13.20;;;9.00;;
55609;SDS011;41486;52.502;13.486;2024-03-02T18:25:16;18.50;;;10.98;;
55609;SDS011;41486;52.502;13.486;2024-03-02T18:27:44;13.68;;;9.30;;
55609;SDS011;41486;52.502;13.486;2024-03-02T18:30:15;15.10;;;9.30;;
55609;SDS011;41486;52.502;13.486;2024-03-02T18:32:44;13.27;;;9.13;;
55609;SDS011;41486;52.502;13.486;2024-03-02T18:35:12;16.20;;;9.88;;
55609;SDS011;41486;52.502;13.486;2024-03-02T18:37:41;21.35;;;10.85;;
55609;SDS011;41486;52.502;13.486;2024-03-02T18:40:11;13.15;;;9.00;;
55609;SDS011;41486;52.502;13.486;2024-03-02T18:42:42;13.10;;;8.05;;
55609;SDS011;41486;52.502;13.486;2024-03-02T18:45:10;15.10;;;8.90;;
55609;SDS011;41486;52.502;13.486;2024-03-02T18:47:39;18.48;;;10.88;;
55609;SDS011;41486;52.502;13.486;2024-03-02T18:50:08;55.05;;;25.58;;
55609;SDS011;41486;52.502;13.486;2024-03-02T18:52:36;33.75;;;17.45;;
55609;SDS011;41486;52.502;13.486;2024-03-02T18:55:05;25.40;;;13.68;;
55609;SDS011;41486;52.502;13.486;2024-03-02T18:57:34;16.77;;;9.45;;
55609;SDS011;41486;52.502;13.486;2024-03-02T19:00:04;11.70;;;8.60;;
55609;SDS011;41486;52.502;13.486;2024-03-02T19:02:40;13.40;;;8.98;;
55609;SDS011;41486;52.502;13.486;2024-03-02T19:05:09;14.55;;;8.52;;
55609;SDS011;41486;52.502;13.486;2024-03-02T19:07:37;15.52;;;9.18;;
55609;SDS011;41486;52.502;13.486;2024-03-02T19:10:06;13.45;;;8.05;;
55609;SDS011;41486;52.502;13.486;2024-03-02T19:12:37;19.13;;;9.20;;
55609;SDS011;41486;52.502;13.486;2024-03-02T19:15:08;14.10;;;8.23;;
55609;SDS011;41486;52.502;13.486;2024-03-02T19:17:39;15.02;;;9.85;;
55609;SDS011;41486;52.502;13.486;2024-03-02T19:20:08;14.13;;;9.02;;
55609;SDS011;41486;52.502;13.486;2024-03-02T19:22:38;13.82;;;9.27;;
55609;SDS011;41486;52.502;13.486;2024-03-02T19:25:08;18.90;;;9.73;;
55609;SDS011;41486;52.502;13.486;2024-03-02T19:27:38;13.73;;;9.32;;
55609;SDS011;41486;52.502;13.486;2024-03-02T19:30:06;25.85;;;16.52;;
55609;SDS011;41486;52.502;13.486;2024-03-02T19:32:40;15.40;;;9.15;;
55609;SDS011;41486;52.502;13.486;2024-03-02T19:35:08;13.32;;;8.40;;
55609;SDS011;41486;52.502;13.486;2024-03-02T19:37:38;14.57;;;9.02;;
55609;SDS011;41486;52.502;13.486;2024-03-02T19:40:08;14.10;;;8.32;;
55609;SDS011;41486;52.502;13.486;2024-03-02T19:42:37;17.80;;;8.50;;
55609;SDS011;41486;52.502;13.486;2024-03-02T19:45:05;14.57;;;8.52;;
55609;SDS011;41486;52.502;13.486;2024-03-02T19:47:33;14.38;;;8.57;;
55609;SDS011;41486;52.502;13.486;2024-03-02T19:50:04;13.05;;;8.23;;
55609;SDS011;41486;52.502;13.486;2024-03-02T19:52:34;13.40;;;8.10;;
55609;SDS011;41486;52.502;13.486;2024-03-02T19:55:03;13.60;;;8.82;;
55609;SDS011;41486;52.502;13.486;2024-03-02T19:57:33;12.80;;;8.48;;
55609;SDS011;41486;52.502;13.486;2024-03-02T20:00:02;15.52;;;9.30;;
55609;SDS011;41486;52.502;13.486;2024-03-02T20:02:33;13.82;;;8.27;;
55609;SDS011;41486;52.502;13.486;2024-03-02T20:05:01;17.58;;;9.50;;
55609;SDS011;41486;52.502;13.486;2024-03-02T20:07:32;12.80;;;8.38;;
55609;SDS011;41486;52.502;13.486;2024-03-02T20:10:00;17.23;;;9.77;;
55609;SDS011;41486;52.502;13.486;2024-03-02T20:12:33;15.60;;;9.18;;
55609;SDS011;41486;52.502;13.486;2024-03-02T20:15:02;17.73;;;9.13;;
55609;SDS011;41486;52.502;13.486;2024-03-02T20:17:31;18.38;;;9.82;;
55609;SDS011;41486;52.502;13.486;2024-03-02T20:19:59;17.42;;;9.50;;
55609;SDS011;41486;52.502;13.486;2024-03-02T20:22:27;14.63;;;8.77;;
55609;SDS011;41486;52.502;13.486;2024-03-02T20:24:57;19.83;;;11.05;;
55609;SDS011;41486;52.502;13.486;2024-03-02T20:27:25;17.00;;;10.27;;
55609;SDS011;41486;52.502;13.486;2024-03-02T20:29:53;17.48;;;10.70;;
55609;SDS011;41486;52.502;13.486;2024-03-02T20:32:21;26.77;;;15.75;;
55609;SDS011;41486;52.502;13.486;2024-03-02T20:34:49;27.25;;;15.73;;
55609;SDS011;41486;52.502;13.486;2024-03-02T20:37:17;17.98;;;10.82;;
55609;SDS011;41486;52.502;13.486;2024-03-02T20:39:50;17.27;;;10.48;;
55609;SDS011;41486;52.502;13.486;2024-03-02T20:42:21;16.52;;;10.65;;
55609;SDS011;41486;52.502;13.486;2024-03-02T20:44:49;18.67;;;10.45;;
55609;SDS011;41486;52.502;13.486;2024-03-02T20:47:17;14.85;;;10.32;;
55609;SDS011;41486;52.502;13.486;2024-03-02T20:49:45;21.25;;;10.75;;
55609;SDS011;41486;52.502;13.486;2024-03-02T20:52:14;20.50;;;10.57;;
55609;SDS011;41486;52.502;13.486;2024-03-02T20:54:42;16.08;;;10.32;;
55609;SDS011;41486;52.502;13.486;2024-03-02T20:57:10;17.58;;;10.32;;
55609;SDS011;41486;52.502;13.486;2024-03-02T20:59:40;14.73;;;10.30;;
55609;SDS011;41486;52.502;13.486;2024-03-02T21:02:08;19.35;;;10.88;;
55609;SDS011;41486;52.502;13.486;2024-03-02T21:04:36;19.40;;;11.70;;
55609;SDS011;41486;52.502;13.486;2024-03-02T21:07:04;19.25;;;11.50;;
55609;SDS011;41486;52.502;13.486;2024-03-02T21:09:32;17.83;;;11.07;;
55609;SDS011;41486;52.502;13.486;2024-03-02T21:12:00;16.42;;;11.02;;
55609;SDS011;41486;52.502;13.486;2024-03-02T21:14:31;17.55;;;10.38;;
55609;SDS011;41486;52.502;13.486;2024-03-02T21:17:02;19.88;;;11.02;;
55609;SDS011;41486;52.502;13.486;2024-03-02T21:19:31;15.43;;;10.27;;
55609;SDS011;41486;52.502;13.486;2024-03-02T21:21:59;15.25;;;9.82;;
55609;SDS011;41486;52.502;13.486;2024-03-02T21:24:30;15.02;;;9.55;;
55609;SDS011;41486;52.502;13.486;2024-03-02T21:26:58;18.13;;;11.07;;
55609;SDS011;41486;52.502;13.486;2024-03-02T21:29:26;17.83;;;9.98;;
55609;SDS011;41486;52.502;13.486;2024-03-02T21:31:54;16.33;;;10.85;;
55609;SDS011;41486;52.502;13.486;2024-03-02T21:34:24;16.63;;;10.73;;
55609;SDS011;41486;52.502;13.486;2024-03-02T21:36:52;18.63;;;10.95;;
55609;SDS011;41486;52.502;13.486;2024-03-02T21:39:20;19.65;;;11.88;;
55609;SDS011;41486;52.502;13.486;2024-03-02T21:42:04;17.48;;;10.55;;
55609;SDS011;41486;52.502;13.486;2024-03-02T21:44:33;16.58;;;11.77;;
55609;SDS011;41486;52.502;13.486;2024-03-02T21:47:01;18.67;;;11.10;;
55609;SDS011;41486;52.502;13.486;2024-03-02T21:49:34;18.73;;;11.68;;
55609;SDS011;41486;52.502;13.486;2024-03-02T21:52:02;18.50;;;9.90;;
55609;SDS011;41486;52.502;13.486;2024-03-02T21:54:30;20.77;;;12.07;;
55609;SDS011;41486;52.502;13.486;2024-03-02T21:56:59;17.50;;;10.88;;
55609;SDS011;41486;52.502;13.486;2024-03-02T21:59:29;19.08;;;12.05;;
55609;SDS011;41486;52.502;13.486;2024-03-02T22:01:57;16.55;;;11.30;;
55609;SDS011;41486;52.502;13.486;2024-03-02T22:04:25;19.27;;;10.45;;
55609;SDS011;41486;52.502;13.486;2024-03-02T22:06:55;19.67;;;11.30;;
55609;SDS011;41486;52.502;13.486;2024-03-02T22:09:23;18.27;;;11.20;;
55609;SDS011;41486;52.502;13.486;2024-03-02T22:11:51;17.40;;;10.35;;
55609;SDS011;41486;52.502;13.486;2024-03-02T22:14:19;18.92;;;11.73;;
55609;SDS011;41486;52.502;13.486;2024-03-02T22:16:47;19.63;;;10.98;;
55609;SDS011;41486;52.502;13.486;2024-03-02T22:19:15;17.88;;;10.90;;
55609;SDS011;41486;52.502;13.486;2024-03-02T22:21:43;18.77;;;11.27;;
55609;SDS011;41486;52.502;13.486;2024-03-02T22:24:14;21.13;;;11.30;;
55609;SDS011;41486;52.502;13.486;2024-03-02T22:26:42;19.05;;;11.55;;
55609;SDS011;41486;52.502;13.486;2024-03-02T22:29:10;19.63;;;12.32;;
55609;SDS011;41486;52.502;13.486;2024-03-02T22:31:39;21.25;;;11.77;;
55609;SDS011;41486;52.502;13.486;2024-03-02T22:34:07;24.27;;;12.27;;
55609;SDS011;41486;52.502;13.486;2024-03-02T22:36:35;23.73;;;11.88;;
55609;SDS011;41486;52.502;13.486;2024-03-02T22:39:03;17.85;;;11.82;;
55609;SDS011;41486;52.502;13.486;2024-03-02T22:41:32;20.25;;;12.93;;
55609;SDS011;41486;52.502;13.486;2024-03-02T22:44:00;21.02;;;12.32;;
55609;SDS011;41486;52.502;13.486;2024-03-02T22:46:28;22.25;;;12.40;;
55609;SDS011;41486;52.502;13.486;2024-03-02T22:48:56;19.40;;;11.80;;
55609;SDS011;41486;52.502;13.486;2024-03-02T22:51:25;22.35;;;12.50;;
55609;SDS011;41486;52.502;13.486;2024-03-02T22:53:54;20.30;;;12.48;;
55609;SDS011;41486;52.502;13.486;2024-03-02T22:56:21;20.95;;;12.40;;
55609;SDS011;41486;52.502;13.486;2024-03-02T22:58:51;22.52;;;13.95;;
55609;SDS011;41486;52.502;13.486;2024-03-02T23:01:19;22.75;;;12.35;;
55609;SDS011;41486;52.502;13.486;2024-03-02T23:03:49;23.27;;;13.75;;
55609;SDS011;41486;52.502;13.486;2024-03-02T23:06:17;23.25;;;12.60;;
55609;SDS011;41486;52.502;13.486;2024-03-02T23:08:46;23.00;;;12.23;;
55609;SDS011;41486;52.502;13.486;2024-03-02T23:11:14;23.42;;;12.80;;
55609;SDS011;41486;52.502;13.486;2024-03-02T23:13:42;19.10;;;12.25;;
55609;SDS011;41486;52.502;13.486;2024-03-02T23:16:11;20.15;;;13.02;;
55609;SDS011;41486;52.502;13.486;2024-03-02T23:18:39;24.25;;;13.15;;
55609;SDS011;41486;52.502;13.486;2024-03-02T23:21:08;29.08;;;14.65;;
55609;SDS011;41486;52.502;13.486;2024-03-02T23:23:36;26.25;;;13.85;;
55609;SDS011;41486;52.502;13.486;2024-03-02T23:26:04;23.13;;;14.18;;
55609;SDS011;41486;52.502;13.486;2024-03-02T23:28:33;27.85;;;14.93;;
55609;SDS011;41486;52.502;13.486;2024-03-02T23:31:01;24.25;;;14.20;;
55609;SDS011;41486;52.502;13.486;2024-03-02T23:33:32;29.73;;;14.88;;
55609;SDS011;41486;52.502;13.486;2024-03-02T23:36:00;22.17;;;14.35;;
55609;SDS011;41486;52.502;13.486;2024-03-02T23:38:28;24.58;;;12.40;;
55609;SDS011;41486;52.502;13.486;2024-03-02T23:40:56;24.70;;;14.75;;
55609;SDS011;41486;52.502;13.486;2024-03-02T23:43:37;26.17;;;14.82;;
55609;SDS011;41486;52.502;13.486;2024-03-02T23:46:06;26.55;;;15.50;;
55609;SDS011;41486;52.502;13.486;2024-03-02T23:48:36;24.80;;;14.38;;
55609;SDS011;41486;52.502;13.486;2024-03-02T23:51:04;28.55;;;15.77;;
55609;SDS011;41486;52.502;13.486;2024-03-02T23:53:33;28.50;;;16.77;;
55609;SDS011;41486;52.502;13.486;2024-03-02T23:56:07;24.83;;;14.10;;
55609;SDS011;41486;52.502;13.486;2024-03-02T23:58:36;27.02;;;16.45;;
